createdAt,value
2022-11-24T00:00:54.228Z,1.25
2022-11-24T00:03:22.109Z,1.08
2022-11-24T00:05:49.852Z,1.30
2022-11-24T00:08:18.419Z,1.15
2022-11-24T00:10:46.052Z,1.10
2022-11-24T00:13:13.788Z,1.05
2022-11-24T00:15:41.399Z,0.90
2022-11-24T00:18:09.028Z,1.15
2022-11-24T00:20:36.656Z,1.10
2022-11-24T00:23:04.365Z,1.30
2022-11-24T00:25:32.905Z,1.23
2022-11-24T00:28:00.504Z,1.20
2022-11-24T00:30:28.188Z,1.00
2022-11-24T00:32:55.845Z,1.20
2022-11-24T00:35:23.743Z,0.98
2022-11-24T00:37:51.378Z,1.20
2022-11-24T00:40:19.004Z,1.00
2022-11-24T00:42:46.627Z,1.40
2022-11-24T00:45:14.468Z,1.15
2022-11-24T00:47:42.183Z,1.20
2022-11-24T00:50:10.014Z,1.50
2022-11-24T00:52:37.746Z,1.20
2022-11-24T00:55:05.614Z,1.10
2022-11-24T00:57:35.586Z,1.15
2022-11-24T01:00:03.213Z,1.38
2022-11-24T01:02:30.897Z,1.10
2022-11-24T01:04:58.636Z,1.40
2022-11-24T01:07:26.276Z,1.30
2022-11-24T01:09:53.912Z,1.42
2022-11-24T01:12:21.555Z,1.30
2022-11-24T01:14:49.220Z,1.08
2022-11-24T01:17:16.917Z,1.13
2022-11-24T01:19:47.215Z,1.17
2022-11-24T01:22:14.928Z,1.27
2022-11-24T01:24:42.620Z,1.42
2022-11-24T01:27:10.329Z,1.40
2022-11-24T01:29:37.958Z,1.25
2022-11-24T01:32:05.770Z,1.30
2022-11-24T01:34:33.661Z,1.13
2022-11-24T01:37:01.454Z,1.50
2022-11-24T01:39:29.075Z,1.48
2022-11-24T01:41:56.692Z,1.30
2022-11-24T01:44:28.480Z,1.63
2022-11-24T01:46:58.686Z,1.45
2022-11-24T01:49:28.180Z,1.77
2022-11-24T01:52:00.746Z,1.45
2022-11-24T01:54:34.088Z,1.20
2022-11-24T01:57:06.460Z,1.20
2022-11-24T01:59:34.251Z,1.25
2022-11-24T02:02:02.594Z,1.48
2022-11-24T02:04:32.343Z,1.70
2022-11-24T02:07:01.538Z,1.42
2022-11-24T02:09:35.655Z,1.48
2022-11-24T02:12:03.724Z,1.33
2022-11-24T02:14:31.608Z,1.40
2022-11-24T02:16:59.505Z,1.63
2022-11-24T02:19:42.526Z,1.67
2022-11-24T02:22:16.355Z,1.77
2022-11-24T02:24:57.062Z,1.65
2022-11-24T02:27:24.681Z,1.55
2022-11-24T02:29:52.552Z,1.55
2022-11-24T02:32:20.795Z,1.75
2022-11-24T02:34:48.505Z,1.60
2022-11-24T02:37:16.134Z,1.63
2022-11-24T02:39:43.764Z,1.50
2022-11-24T02:42:12.912Z,1.40
2022-11-24T02:44:44.120Z,1.65
2022-11-24T02:49:39.198Z,1.70
2022-11-24T02:52:06.961Z,1.70
2022-11-24T02:54:35.063Z,1.70
2022-11-24T02:57:02.877Z,1.63
2022-11-24T02:59:30.590Z,1.60
2022-11-24T03:01:58.308Z,1.67
2022-11-24T03:04:26.038Z,1.48
2022-11-24T03:06:53.859Z,1.50
2022-11-24T03:09:21.502Z,1.77
2022-11-24T03:11:49.113Z,1.73
2022-11-24T03:14:16.817Z,1.60
2022-11-24T03:16:44.437Z,1.50
2022-11-24T03:19:12.080Z,1.60
2022-11-24T03:21:39.704Z,1.73
2022-11-24T03:24:07.435Z,1.50
2022-11-24T03:26:35.704Z,1.70
2022-11-24T03:29:03.357Z,1.73
2022-11-24T03:31:31.046Z,2.13
2022-11-24T03:33:58.856Z,1.70
2022-11-24T03:36:26.786Z,1.58
2022-11-24T03:38:54.485Z,1.45
2022-11-24T03:41:22.125Z,1.60
2022-11-24T03:43:49.860Z,1.50
2022-11-24T03:46:17.678Z,1.52
2022-11-24T03:48:45.438Z,1.50
2022-11-24T03:51:13.089Z,1.70
2022-11-24T03:53:40.879Z,1.50
2022-11-24T03:56:08.719Z,1.40
2022-11-24T03:58:36.429Z,1.25
2022-11-24T04:01:04.285Z,1.45
2022-11-24T04:03:31.980Z,1.60
2022-11-24T04:05:59.658Z,1.58
2022-11-24T04:08:27.293Z,1.58
2022-11-24T04:10:55.372Z,1.50
2022-11-24T04:13:24.944Z,1.50
2022-11-24T04:15:53.090Z,1.35
2022-11-24T04:18:21.130Z,1.50
2022-11-24T04:20:52.132Z,1.65
2022-11-24T04:23:20.023Z,1.40
2022-11-24T04:25:47.669Z,1.30
2022-11-24T04:28:15.293Z,1.40
2022-11-24T04:30:45.158Z,1.40
2022-11-24T04:33:13.496Z,1.42
2022-11-24T04:35:41.088Z,1.60
2022-11-24T04:38:08.748Z,1.30
2022-11-24T04:40:36.307Z,1.63
2022-11-24T04:43:03.876Z,1.60
2022-11-24T04:45:32.529Z,1.50
2022-11-24T04:48:00.086Z,1.20
2022-11-24T04:50:27.705Z,1.42
2022-11-24T04:52:55.281Z,1.40
2022-11-24T04:55:23.940Z,1.50
2022-11-24T04:57:51.518Z,1.40
2022-11-24T05:00:19.483Z,1.52
2022-11-24T05:02:47.060Z,1.33
2022-11-24T05:05:15.673Z,1.40
2022-11-24T05:07:43.280Z,1.38
2022-11-24T05:10:29.587Z,1.67
2022-11-24T05:12:59.623Z,1.30
2022-11-24T05:15:27.496Z,1.42
2022-11-24T05:17:55.508Z,1.60
2022-11-24T05:20:23.134Z,1.70
2022-11-24T05:22:50.765Z,1.50
2022-11-24T05:25:18.491Z,1.40
2022-11-24T05:27:46.157Z,1.40
2022-11-24T05:30:14.013Z,1.33
2022-11-24T05:32:41.626Z,1.30
2022-11-24T05:35:09.932Z,1.40
2022-11-24T05:37:38.009Z,1.42
2022-11-24T05:40:07.036Z,1.95
2022-11-24T05:42:46.110Z,1.60
2022-11-24T05:45:20.322Z,1.33
2022-11-24T05:47:48.358Z,1.52
2022-11-24T05:50:17.009Z,1.80
2022-11-24T05:52:44.708Z,1.85
2022-11-24T05:55:14.757Z,1.40
2022-11-24T05:57:42.681Z,1.60
2022-11-24T06:00:11.130Z,1.70
2022-11-24T06:02:41.872Z,1.40
2022-11-24T06:05:10.112Z,1.70
2022-11-24T06:07:37.856Z,1.83
2022-11-24T06:10:05.749Z,1.35
2022-11-24T06:12:33.332Z,1.50
2022-11-24T06:15:01.046Z,1.80
2022-11-24T06:17:28.933Z,1.63
2022-11-24T06:19:56.532Z,1.63
2022-11-24T06:22:24.201Z,1.60
2022-11-24T06:24:51.880Z,1.55
2022-11-24T06:27:19.593Z,1.67
2022-11-24T06:29:47.697Z,1.60
2022-11-24T06:32:15.344Z,1.52
2022-11-24T06:34:42.949Z,1.40
2022-11-24T06:37:10.668Z,1.58
2022-11-24T06:39:38.263Z,1.50
2022-11-24T06:42:06.006Z,1.63
2022-11-24T06:44:34.115Z,1.55
2022-11-24T06:47:02.054Z,1.75
2022-11-24T06:49:29.653Z,1.40
2022-11-24T06:51:57.259Z,1.33
2022-11-24T06:54:25.924Z,1.20
2022-11-24T06:56:57.396Z,1.75
2022-11-24T06:59:26.508Z,1.48
2022-11-24T07:01:54.264Z,1.55
2022-11-24T07:04:21.936Z,1.70
2022-11-24T07:06:49.704Z,1.40
2022-11-24T07:09:17.314Z,1.40
2022-11-24T07:11:44.940Z,1.75
2022-11-24T07:14:12.815Z,1.40
2022-11-24T07:16:40.872Z,1.40
2022-11-24T07:19:10.365Z,1.52
2022-11-24T07:21:37.938Z,1.70
2022-11-24T07:24:06.891Z,1.45
2022-11-24T07:26:37.605Z,1.80
2022-11-24T07:29:05.670Z,1.25
2022-11-24T07:31:33.278Z,1.55
2022-11-24T07:34:01.242Z,1.48
2022-11-24T07:36:28.898Z,1.35
2022-11-24T07:38:56.477Z,1.33
2022-11-24T07:41:24.294Z,1.17
2022-11-24T07:43:52.041Z,1.58
2022-11-24T07:46:20.246Z,1.40
2022-11-24T07:48:47.930Z,1.92
2022-11-24T07:51:16.068Z,1.35
2022-11-24T07:53:43.810Z,1.50
2022-11-24T07:56:12.672Z,1.60
2022-11-24T07:58:40.287Z,1.40
2022-11-24T08:01:15.216Z,1.60
2022-11-24T08:03:43.478Z,1.52
2022-11-24T08:06:31.843Z,1.60
2022-11-24T08:08:59.480Z,1.70
2022-11-24T08:11:27.408Z,1.50
2022-11-24T08:13:55.049Z,1.33
2022-11-24T08:16:22.787Z,1.83
2022-11-24T08:18:51.615Z,1.50
2022-11-24T08:21:19.229Z,1.50
2022-11-24T08:23:46.901Z,1.50
2022-11-24T08:26:17.799Z,1.77
2022-11-24T08:28:46.288Z,1.90
2022-11-24T08:31:15.021Z,1.42
2022-11-24T08:33:43.137Z,1.98
2022-11-24T08:36:12.022Z,1.35
2022-11-24T08:38:39.652Z,1.35
2022-11-24T08:41:10.943Z,1.40
2022-11-24T08:43:38.675Z,1.67
2022-11-24T08:46:08.713Z,1.60
2022-11-24T08:48:36.360Z,1.73
2022-11-24T08:51:08.685Z,1.50
2022-11-24T08:53:37.390Z,1.20
2022-11-24T08:56:05.629Z,1.30
2022-11-24T08:58:33.696Z,1.73
2022-11-24T09:01:05.861Z,1.50
2022-11-24T09:03:35.079Z,1.50
2022-11-24T09:06:03.014Z,1.50
2022-11-24T09:08:31.168Z,1.50
2022-11-24T09:11:02.548Z,1.33
2022-11-24T09:13:30.303Z,1.55
2022-11-24T09:15:58.249Z,1.83
2022-11-24T09:18:30.064Z,1.70
2022-11-24T09:21:11.308Z,1.33
2022-11-24T09:23:39.367Z,1.42
2022-11-24T09:26:11.289Z,1.58
2022-11-24T09:28:38.893Z,1.45
2022-11-24T09:31:08.141Z,1.60
2022-11-24T09:33:36.173Z,1.48
2022-11-24T09:36:04.525Z,1.75
2022-11-24T09:38:32.484Z,1.98
2022-11-24T09:41:29.202Z,1.88
2022-11-24T09:43:56.857Z,1.80
2022-11-24T09:46:28.682Z,1.75
2022-11-24T09:48:58.139Z,1.50
2022-11-24T09:51:29.567Z,2.10
2022-11-24T09:54:16.846Z,1.40
2022-11-24T09:56:44.768Z,1.50
2022-11-24T09:59:22.411Z,1.73
2022-11-24T10:01:51.068Z,1.60
2022-11-24T10:04:23.102Z,1.73
2022-11-24T10:06:56.517Z,1.58
2022-11-24T10:09:42.723Z,1.40
2022-11-24T10:12:28.562Z,1.65
2022-11-24T10:14:59.178Z,1.30
2022-11-24T10:17:50.026Z,1.63
2022-11-24T10:20:36.465Z,1.80
2022-11-24T10:23:19.224Z,1.95
2022-11-24T10:25:57.700Z,1.25
2022-11-24T10:28:28.286Z,1.42
2022-11-24T10:31:01.293Z,1.42
2022-11-24T10:33:31.068Z,1.35
2022-11-24T10:36:04.973Z,1.83
2022-11-24T10:38:33.094Z,1.50
2022-11-24T10:41:04.086Z,1.40
2022-11-24T10:46:19.515Z,1.48
2022-11-24T10:48:50.827Z,1.30
2022-11-24T10:51:24.555Z,1.52
2022-11-24T10:53:54.794Z,1.50
2022-11-24T10:56:22.435Z,1.63
2022-11-24T10:58:50.024Z,1.38
2022-11-24T11:01:19.209Z,1.50
2022-11-24T11:03:48.450Z,1.20
2022-11-24T11:06:21.752Z,1.83
2022-11-24T11:08:49.794Z,1.25
2022-11-24T11:11:17.875Z,1.45
2022-11-24T11:13:52.978Z,1.23
2022-11-24T11:16:27.752Z,1.30
2022-11-24T11:18:55.611Z,1.65
2022-11-24T11:21:49.381Z,1.20
2022-11-24T11:24:18.560Z,1.40
2022-11-24T11:26:46.183Z,1.23
2022-11-24T11:34:54.449Z,1.40
2022-11-24T11:37:22.717Z,1.17
2022-11-24T11:39:54.460Z,1.30
2022-11-24T11:42:53.946Z,1.20
2022-11-24T11:45:12.492Z,1.43
2022-11-24T11:47:59.230Z,1.35
2022-11-24T11:51:06.737Z,1.30
2022-11-24T11:53:28.701Z,1.48
2022-11-24T11:56:03.001Z,1.30
2022-11-24T11:58:33.661Z,1.42
2022-11-24T12:01:24.720Z,1.20
2022-11-24T12:04:11.482Z,1.15
2022-11-24T12:07:01.886Z,1.42
2022-11-24T12:09:37.016Z,1.00
2022-11-24T12:12:04.858Z,1.30
2022-11-24T12:14:39.469Z,1.30
2022-11-24T12:17:27.445Z,1.38
2022-11-24T12:20:06.011Z,1.20
2022-11-24T12:22:39.345Z,1.40
2022-11-24T12:25:23.219Z,1.23
2022-11-24T12:27:53.675Z,1.13
2022-11-24T12:30:22.742Z,1.10
2022-11-24T12:33:02.366Z,1.30
2022-11-24T12:35:35.839Z,1.20
2022-11-24T12:38:20.557Z,1.33
2022-11-24T12:40:48.408Z,1.10
2022-11-24T12:43:33.412Z,1.50
2022-11-24T12:46:18.754Z,1.27
2022-11-24T12:49:04.760Z,1.20
2022-11-24T12:51:34.164Z,1.00
2022-11-24T12:54:03.614Z,1.20
2022-11-24T12:56:40.928Z,1.17
2022-11-24T12:59:27.263Z,1.23
2022-11-24T13:02:10.905Z,1.10
2022-11-24T13:04:51.248Z,1.30
2022-11-24T13:07:28.061Z,1.07
2022-11-24T13:10:14.330Z,1.50
2022-11-24T13:12:58.389Z,1.10
2022-11-24T13:15:45.050Z,1.25
2022-11-24T13:18:33.872Z,1.70
2022-11-24T13:21:02.139Z,1.20
2022-11-24T13:23:29.993Z,1.00
2022-11-24T13:26:14.999Z,1.25
2022-11-24T13:29:24.258Z,1.00
2022-11-24T13:31:53.089Z,1.17
2022-11-24T13:34:42.971Z,1.10
2022-11-24T13:37:32.004Z,1.30
2022-11-24T13:40:13.419Z,1.30
2022-11-24T13:42:57.346Z,1.10
2022-11-24T13:45:41.061Z,1.10
2022-11-24T13:48:21.864Z,1.30
2022-11-24T13:50:58.579Z,1.20
2022-11-24T13:53:41.641Z,1.00
2022-11-24T13:56:15.232Z,1.35
2022-11-24T13:58:43.847Z,1.23
2022-11-24T14:01:14.542Z,1.20
2022-11-24T14:04:21.604Z,0.80
2022-11-24T14:06:38.833Z,1.10
2022-11-24T14:11:33.864Z,1.08
2022-11-24T14:14:16.148Z,0.95
2022-11-24T14:16:47.025Z,1.30
2022-11-24T14:19:19.692Z,0.85
2022-11-24T14:21:47.341Z,1.27
2022-11-24T14:24:25.502Z,1.10
2022-11-24T14:26:53.545Z,1.00
2022-11-24T14:29:22.225Z,1.00
2022-11-24T14:31:54.082Z,1.20
2022-11-24T14:34:22.675Z,1.00
2022-11-24T14:36:51.121Z,0.95
2022-11-24T14:39:25.573Z,1.13
2022-11-24T14:42:01.133Z,1.25
2022-11-24T14:44:34.782Z,0.88
2022-11-24T14:47:14.788Z,1.17
2022-11-24T14:49:43.665Z,1.00
2022-11-24T14:52:15.952Z,1.25
2022-11-24T14:54:55.505Z,1.13
2022-11-24T14:57:23.128Z,1.00
2022-11-24T15:00:10.974Z,1.23
2022-11-24T15:02:48.002Z,0.80
2022-11-24T15:05:16.177Z,1.20
2022-11-24T15:07:47.829Z,0.95
2022-11-24T15:10:25.639Z,0.82
2022-11-24T15:13:00.740Z,1.08
2022-11-24T15:15:36.130Z,1.10
2022-11-24T15:18:05.096Z,0.90
2022-11-24T15:20:46.686Z,1.02
2022-11-24T15:23:14.294Z,1.15
2022-11-24T15:25:42.075Z,0.98
2022-11-24T15:28:09.802Z,1.13
2022-11-24T15:30:37.647Z,0.90
2022-11-24T15:33:12.354Z,1.02
2022-11-24T15:35:39.971Z,1.00
2022-11-24T15:38:07.596Z,1.00
2022-11-24T15:40:35.267Z,1.10
2022-11-24T15:43:06.481Z,1.20
2022-11-24T15:45:34.992Z,1.10
2022-11-24T15:48:02.605Z,1.10
2022-11-24T15:50:30.242Z,1.20
2022-11-24T15:52:58.095Z,0.98
2022-11-24T15:55:25.837Z,1.10
2022-11-24T15:57:53.606Z,1.00
2022-11-24T16:00:22.562Z,1.02
2022-11-24T16:02:50.245Z,1.00
2022-11-24T16:05:18.647Z,1.38
2022-11-24T16:07:46.337Z,1.00
2022-11-24T16:10:33.929Z,1.02
2022-11-24T16:13:01.513Z,0.93
2022-11-24T16:15:29.187Z,0.82
2022-11-24T16:17:56.860Z,0.80
2022-11-24T16:20:24.633Z,0.80
2022-11-24T16:22:52.537Z,1.33
2022-11-24T16:25:20.232Z,1.15
2022-11-24T16:27:47.851Z,0.90
2022-11-24T16:30:15.550Z,1.15
2022-11-24T16:32:43.178Z,1.20
2022-11-24T16:35:10.867Z,1.30
2022-11-24T16:37:38.823Z,1.00
2022-11-24T16:40:06.888Z,1.02
2022-11-24T16:42:34.489Z,0.85
2022-11-24T16:45:02.233Z,0.90
2022-11-24T16:47:29.851Z,1.08
2022-11-24T16:49:57.527Z,1.10
2022-11-24T16:52:25.113Z,0.90
2022-11-24T16:54:52.756Z,1.20
2022-11-24T16:57:20.377Z,1.20
2022-11-24T16:59:48.001Z,1.10
2022-11-24T17:02:15.760Z,1.20
2022-11-24T17:04:43.519Z,0.95
2022-11-24T17:07:11.257Z,0.80
2022-11-24T17:09:40.761Z,1.10
2022-11-24T17:12:08.657Z,1.10
2022-11-24T17:14:37.044Z,0.90
2022-11-24T17:17:04.880Z,1.10
2022-11-24T17:19:32.604Z,0.77
2022-11-24T17:22:00.238Z,0.82
2022-11-24T17:24:27.976Z,1.38
2022-11-24T17:26:55.612Z,1.17
2022-11-24T17:29:23.236Z,1.05
2022-11-24T17:31:50.945Z,0.80
2022-11-24T17:34:18.808Z,1.23
2022-11-24T17:36:46.523Z,1.08
2022-11-24T17:39:14.184Z,1.05
2022-11-24T17:41:41.821Z,1.10
2022-11-24T17:44:10.788Z,1.17
2022-11-24T17:46:39.228Z,1.20
2022-11-24T17:49:08.472Z,1.40
2022-11-24T17:51:36.113Z,1.50
2022-11-24T17:54:24.667Z,1.42
2022-11-24T17:56:51.724Z,1.40
2022-11-24T17:59:19.279Z,1.50
2022-11-24T18:01:46.894Z,1.50
2022-11-24T18:04:14.648Z,1.60
2022-11-24T18:06:42.315Z,1.75
2022-11-24T18:09:12.004Z,1.90
2022-11-24T18:11:39.628Z,1.67
2022-11-24T18:14:07.423Z,1.70
2022-11-24T18:16:35.530Z,1.90
2022-11-24T18:19:09.091Z,1.65
2022-11-24T18:21:38.509Z,2.03
2022-11-24T18:24:06.292Z,2.15
2022-11-24T18:26:33.851Z,2.03
2022-11-24T18:29:01.782Z,1.80
2022-11-24T18:31:34.416Z,1.80
2022-11-24T18:34:02.704Z,2.08
2022-11-24T18:36:31.462Z,2.15
2022-11-24T18:39:02.604Z,2.15
2022-11-24T18:43:57.700Z,1.80
2022-11-24T18:46:27.189Z,2.40
2022-11-24T18:48:55.840Z,1.80
2022-11-24T18:51:24.277Z,2.00
2022-11-24T18:53:54.845Z,2.00
2022-11-24T18:56:22.924Z,1.90
2022-11-24T18:58:53.608Z,1.70
2022-11-24T19:01:23.851Z,2.13
2022-11-24T19:03:53.020Z,2.10
2022-11-24T19:06:40.337Z,2.00
2022-11-24T19:09:18.543Z,1.80
2022-11-24T19:11:46.627Z,1.70
2022-11-24T19:14:15.724Z,1.60
2022-11-24T19:16:45.108Z,1.60
2022-11-24T19:19:13.430Z,1.98
2022-11-24T19:21:41.335Z,1.75
2022-11-24T19:24:18.664Z,1.75
2022-11-24T19:26:46.417Z,2.30
2022-11-24T19:29:14.058Z,2.15
2022-11-24T19:31:43.886Z,1.80
2022-11-24T19:34:12.008Z,1.80
2022-11-24T19:36:41.127Z,1.80
2022-11-24T19:39:09.008Z,1.83
2022-11-24T19:41:36.748Z,1.83
2022-11-24T19:44:05.728Z,1.85
2022-11-24T19:46:34.570Z,1.60
2022-11-24T19:49:02.841Z,1.70
2022-11-24T19:51:31.831Z,1.85
2022-11-24T19:54:00.399Z,1.73
2022-11-24T19:56:29.599Z,1.80
2022-11-24T19:58:57.746Z,1.80
2022-11-24T20:01:29.647Z,2.10
2022-11-24T20:03:59.122Z,2.00
2022-11-24T20:06:28.207Z,2.17
2022-11-24T20:08:55.833Z,1.98
2022-11-24T20:11:23.848Z,1.83
2022-11-24T20:13:51.882Z,2.03
2022-11-24T20:16:21.181Z,2.10
2022-11-24T20:18:48.920Z,1.75
2022-11-24T20:21:23.834Z,1.85
2022-11-24T20:23:55.802Z,1.92
2022-11-24T20:26:24.493Z,2.00
2022-11-24T20:28:54.121Z,1.80
2022-11-24T20:31:22.868Z,1.98
2022-11-24T20:33:51.161Z,2.00
2022-11-24T20:36:23.173Z,1.75
2022-11-24T20:38:51.965Z,2.13
2022-11-24T20:41:21.792Z,1.95
2022-11-24T20:43:49.911Z,2.03
2022-11-24T20:46:19.350Z,1.90
2022-11-24T20:48:47.013Z,2.00
2022-11-24T20:51:21.820Z,1.70
2022-11-24T20:53:50.502Z,2.10
2022-11-24T20:56:20.306Z,1.80
2022-11-24T20:58:47.970Z,1.90
2022-11-24T21:01:22.898Z,2.00
2022-11-24T21:04:00.154Z,1.80
2022-11-24T21:06:28.298Z,2.00
2022-11-24T21:09:02.013Z,1.98
2022-11-24T21:11:31.140Z,1.80
2022-11-24T21:13:59.380Z,2.10
2022-11-24T21:16:27.022Z,1.50
2022-11-24T21:18:56.742Z,1.88
2022-11-24T21:21:25.669Z,2.20
2022-11-24T21:23:53.412Z,1.73
2022-11-24T21:26:21.062Z,1.88
2022-11-24T21:28:48.740Z,1.98
2022-11-24T21:31:17.977Z,1.67
2022-11-24T21:33:46.840Z,1.90
2022-11-24T21:36:15.791Z,1.50
2022-11-24T21:38:43.448Z,1.88
2022-11-24T21:41:11.786Z,1.80
2022-11-24T21:43:39.457Z,1.60
2022-11-24T21:46:11.000Z,1.90
2022-11-24T21:48:39.187Z,1.80
2022-11-24T21:51:07.862Z,1.67
2022-11-24T21:53:36.567Z,1.70
2022-11-24T21:56:14.124Z,1.60
2022-11-24T21:58:45.940Z,1.70
2022-11-24T22:01:13.952Z,1.60
2022-11-24T22:03:41.740Z,1.75
2022-11-24T22:06:09.365Z,1.58
2022-11-24T22:08:37.012Z,1.40
2022-11-24T22:11:06.788Z,1.40
2022-11-24T22:13:34.832Z,1.70
2022-11-24T22:16:09.841Z,1.63
2022-11-24T22:18:38.661Z,1.60
2022-11-24T22:21:07.432Z,1.33
2022-11-24T22:23:35.931Z,1.52
2022-11-24T22:26:22.674Z,1.60
2022-11-24T22:28:50.798Z,1.80
2022-11-24T22:31:19.854Z,1.67
2022-11-24T22:33:48.006Z,1.58
2022-11-24T22:36:16.643Z,1.42
2022-11-24T22:38:44.547Z,1.52
2022-11-24T22:41:13.254Z,1.67
2022-11-24T22:43:41.917Z,1.58
2022-11-24T22:46:11.191Z,1.63
2022-11-24T22:48:39.251Z,1.65
2022-11-24T22:51:10.797Z,1.63
2022-11-24T22:53:38.888Z,1.70
2022-11-24T22:56:08.316Z,1.55
2022-11-24T22:58:35.945Z,1.80
2022-11-24T23:01:15.900Z,1.50
2022-11-24T23:03:43.874Z,1.70
2022-11-24T23:06:12.761Z,1.65
2022-11-24T23:08:40.837Z,1.92
2022-11-24T23:11:10.007Z,1.50
2022-11-24T23:13:38.229Z,1.60
2022-11-24T23:16:07.260Z,1.48
2022-11-24T23:18:35.260Z,1.60
2022-11-24T23:21:29.114Z,1.55
2022-11-24T23:23:57.353Z,1.58
2022-11-24T23:26:26.237Z,1.60
2022-11-24T23:28:53.822Z,1.52
2022-11-24T23:31:24.286Z,1.40
2022-11-24T23:33:52.982Z,1.35
2022-11-24T23:36:21.457Z,1.60
2022-11-24T23:38:49.353Z,1.60
2022-11-24T23:41:18.515Z,1.55
2022-11-24T23:43:46.170Z,1.30
2022-11-24T23:46:18.068Z,1.50
2022-11-24T23:48:45.792Z,1.48
2022-11-24T23:51:16.565Z,1.63
2022-11-24T23:53:44.421Z,1.50
2022-11-24T23:56:12.854Z,1.40
2022-11-24T23:58:40.588Z,1.48
